Time;durP1;ratioP1;P1;durP2;ratioP2;P2;SDS_P1;SDS_P2;PMS_P1;PMS_P2;Temp;Humidity;BMP_temperature;BMP_pressure;BME280_temperature;BME280_humidity;BME280_pressure;Samples;Min_cycle;Max_cycle;Signal;HPM_P1;HPM_P2
2020/12/25 00:02:19;;;;;;;;;18.67;18.67;;;;;0.21;54.41;101565.28;4422728;32;8883;-82
2020/12/25 00:04:48;;;;;;;;;12.67;12.67;;;;;0.12;54.96;101574.06;4423772;32;8941;-83
2020/12/25 00:07:45;;;;;;;;;15.67;15.67;;;;;0.24;54.99;101570.25;4424240;32;9546;-83
2020/12/25 00:10:41;;;;;;;;;15.33;15.33;;;;;0.19;54.86;101572.84;4435072;32;8942;-83
2020/12/25 00:13:37;;;;;;;;;6.33;6.33;;;;;0.23;54.82;101554.16;4420481;32;8906;-83
2020/12/25 00:16:33;;;;;;;;;13.00;13.00;;;;;0.23;55.15;101565.87;4432714;32;8924;-83
2020/12/25 00:19:28;;;;;;;;;13.67;13.67;;;;;0.24;54.96;101561.25;4434402;32;8912;-83
2020/12/25 00:21:56;;;;;;;;;15.00;15.00;;;;;0.33;54.83;101546.22;4436781;32;8909;-83
2020/12/25 00:24:52;;;;;;;;;19.00;19.00;;;;;0.22;54.85;101542.44;4432033;32;8892;-83
2020/12/25 00:27:48;;;;;;;;;24.33;18.67;;;;;0.24;55.18;101543.03;4434619;32;9667;-83
2020/12/25 00:30:44;;;;;;;;;13.67;12.67;;;;;0.25;55.36;101543.88;4434376;32;9083;-83
2020/12/25 00:33:39;;;;;;;;;21.00;21.00;;;;;0.30;55.34;101545.84;4435298;32;8903;-83
2020/12/25 00:36:39;;;;;;;;;21.67;20.33;;;;;0.25;55.57;101557.47;4433300;32;8894;-83
2020/12/25 00:39:39;;;;;;;;;21.33;19.67;;;;;0.16;55.79;101550.75;4426204;32;9028;-83
2020/12/25 00:42:34;;;;;;;;;19.00;19.00;;;;;0.41;54.98;101551.25;4423003;32;8918;-83
2020/12/25 00:45:30;;;;;;;;;28.33;26.67;;;;;0.25;55.63;101538.44;4433305;32;8890;-83
2020/12/25 00:48:27;;;;;;;;;24.00;24.00;;;;;0.30;55.66;101540.41;4434327;32;8973;-83
2020/12/25 00:51:23;;;;;;;;;22.00;22.00;;;;;0.20;56.08;101535.59;4432878;32;8884;-83
2020/12/25 00:54:18;;;;;;;;;18.67;18.67;;;;;0.23;55.80;101524.22;4433488;32;9569;-82
2020/12/25 00:56:48;;;;;;;;;24.00;21.00;;;;;0.13;56.04;101524.84;4434382;32;9042;-83
2020/12/25 00:59:44;;;;;;;;;16.67;16.67;;;;;0.26;55.78;101523.75;4432571;32;8896;-83
2020/12/25 01:02:42;;;;;;;;;17.00;15.67;;;;;0.26;55.83;101521.84;4433888;32;8957;-83
2020/12/25 01:05:37;;;;;;;;;15.67;15.00;;;;;0.11;56.17;101524.25;4434354;32;8946;-81
2020/12/25 01:08:34;;;;;;;;;14.33;14.33;;;;;0.08;56.39;101521.19;4430932;32;8887;-81
2020/12/25 01:11:30;;;;;;;;;18.67;18.33;;;;;0.09;56.58;101515.53;4432547;32;9018;-83
2020/12/25 01:14:27;;;;;;;;;16.67;16.67;;;;;0.32;56.05;101513.81;4419492;32;8960;-82
2020/12/25 01:17:22;;;;;;;;;7.00;7.00;;;;;0.20;56.44;101502.94;4422473;32;8925;-82
2020/12/25 01:20:18;;;;;;;;;18.67;18.67;;;;;0.21;56.60;101501.87;4432875;32;8987;-81
2020/12/25 01:23:14;;;;;;;;;13.67;13.67;;;;;0.14;56.80;101509.34;4433058;32;8931;-82
2020/12/25 01:26:09;;;;;;;;;16.00;15.33;;;;;0.06;57.09;101498.84;4432572;32;8903;-82
2020/12/25 01:29:06;;;;;;;;;15.67;13.00;;;;;0.13;56.96;101499.53;4433882;32;8938;-82
2020/12/25 01:32:01;;;;;;;;;18.67;18.67;;;;;0.00;57.60;101489.78;4422438;32;8884;-82
2020/12/25 01:34:57;;;;;;;;;16.00;16.00;;;;;0.06;57.40;101491.50;4434067;32;8899;-82
2020/12/25 01:37:39;;;;;;;;;12.00;12.00;;;;;-0.14;57.87;101486.50;4423869;32;8951;-82
2020/12/25 01:40:15;;;;;;;;;22.00;22.00;;;;;-0.19;57.96;101475.50;4427004;32;8899;-81
2020/12/25 01:43:11;;;;;;;;;15.33;12.33;;;;;-0.18;58.27;101473.63;4432323;32;8958;-83
2020/12/25 01:46:07;;;;;;;;;9.67;9.67;;;;;-0.39;58.92;101470.47;4433240;32;8934;-83
2020/12/25 01:49:04;;;;;;;;;22.33;22.33;;;;;-0.43;58.92;101473.91;4436683;32;8942;-82
2020/12/25 01:52:00;;;;;;;;;24.67;24.67;;;;;-0.41;59.18;101469.06;4434018;32;8916;-82
2020/12/25 01:54:56;;;;;;;;;17.33;15.67;;;;;-0.58;59.84;101463.53;4434259;32;8911;-83
2020/12/25 01:57:55;;;;;;;;;18.33;17.67;;;;;-0.54;59.49;101464.69;4433877;32;9018;-82
2020/12/25 02:00:52;;;;;;;;;14.33;14.33;;;;;-0.60;59.87;101463.78;4423616;32;8891;-83
2020/12/25 02:03:47;;;;;;;;;22.67;22.67;;;;;-0.77;60.62;101459.28;4432226;32;9014;-82
2020/12/25 02:06:43;;;;;;;;;24.00;19.00;;;;;-0.55;60.60;101454.88;4432685;32;8896;-82
2020/12/25 02:09:10;;;;;;;;;22.33;22.33;;;;;-0.59;60.81;101438.25;4434916;32;8915;-82
2020/12/25 02:12:06;;;;;;;;;18.67;18.67;;;;;-0.53;60.91;101449.25;4433618;32;8910;-82
2020/12/25 02:15:02;;;;;;;;;21.67;21.00;;;;;-0.63;61.12;101442.50;4433296;32;8895;-82
2020/12/25 02:17:58;;;;;;;;;15.33;15.33;;;;;-0.55;61.09;101438.59;4419236;32;8960;-83
2020/12/25 02:20:54;;;;;;;;;17.33;17.33;;;;;-0.89;61.74;101441.09;4418550;32;8949;-82
2020/12/25 02:23:50;;;;;;;;;18.00;15.00;;;;;-0.57;61.51;101435.28;4416711;32;8906;-83
2020/12/25 02:26:45;;;;;;;;;16.00;16.00;;;;;-0.54;61.43;101434.78;4419139;32;9014;-83
2020/12/25 02:29:27;;;;;;;;;18.00;18.00;;;;;-0.75;62.20;101436.25;4418765;32;8894;-82
2020/12/25 02:32:23;;;;;;;;;18.67;18.67;;;;;-0.79;62.49;101431.53;4418211;32;9582;-82
2020/12/25 02:35:18;;;;;;;;;29.33;24.33;;;;;-0.64;62.35;101437.31;4426699;32;8958;-81
2020/12/25 02:38:14;;;;;;;;;27.33;24.67;;;;;-0.69;62.64;101427.16;4419840;32;8950;-82
2020/12/25 02:40:42;;;;;;;;;27.33;25.67;;;;;-0.67;62.39;101422.31;4436012;32;8910;-82
2020/12/25 02:43:38;;;;;;;;;28.67;26.67;;;;;-0.52;62.06;101424.53;4449086;32;8901;-81
2020/12/25 02:46:34;;;;;;;;;24.00;24.00;;;;;-0.48;61.94;101419.44;4436428;32;8989;-82
2020/12/25 02:49:30;;;;;;;;;28.33;26.33;;;;;-0.43;62.13;101414.13;4451122;32;8893;-83
2020/12/25 02:52:25;;;;;;;;;17.33;15.33;;;;;-0.46;62.31;101410.00;4436152;32;8883;-82
2020/12/25 02:55:21;;;;;;;;;24.00;24.00;;;;;-0.57;62.85;101405.41;4434932;32;8914;-82
2020/12/25 02:58:10;;;;;;;;;21.00;21.00;;;;;-0.56;62.97;101402.44;4434639;32;8928;-81
2020/12/25 03:01:09;;;;;;;;;30.67;28.00;;;;;-0.60;63.15;101400.47;4420216;32;8898;-82
2020/12/25 03:04:04;;;;;;;;;21.00;21.00;;;;;-0.38;62.74;101387.88;4419587;32;8969;-81
2020/12/25 03:06:34;;;;;;;;;26.00;23.00;;;;;-0.34;62.78;101394.47;4425624;32;8937;-81
2020/12/25 03:09:30;;;;;;;;;27.33;27.33;;;;;-0.33;62.88;101390.69;4435920;32;9030;-81
2020/12/25 03:12:14;;;;;;;;;18.67;18.67;;;;;-0.40;63.16;101390.00;4434191;32;8997;-80
2020/12/25 03:15:10;;;;;;;;;29.33;25.67;;;;;-0.23;62.64;101383.78;4444149;32;9595;-81
2020/12/25 03:18:06;;;;;;;;;40.00;33.00;;;;;-0.23;62.70;101386.50;4435850;32;8892;-82
2020/12/25 03:21:01;;;;;;;;;28.67;28.00;;;;;-0.20;62.76;101386.03;4436812;32;8908;-81
2020/12/25 03:23:58;;;;;;;;;28.00;25.00;;;;;-0.32;63.39;101383.34;4440764;32;9541;-82
2020/12/25 03:26:34;;;;;;;;;20.33;20.33;;;;;-0.20;63.40;101386.84;4431594;32;8913;-81
2020/12/25 03:29:30;;;;;;;;;29.33;26.67;;;;;-0.39;63.77;101383.47;4419417;32;9573;-83
2020/12/25 03:32:26;;;;;;;;;24.33;24.33;;;;;-0.08;63.28;101379.50;4434919;32;9018;-83
2020/12/25 03:34:53;;;;;;;;;22.00;22.00;;;;;0.00;63.41;101378.28;4434813;32;8934;-81
2020/12/25 03:37:49;;;;;;;;;21.67;21.67;;;;;-0.10;63.70;101376.16;4435193;32;9046;-81
2020/12/25 03:40:45;;;;;;;;;19.33;19.33;;;;;-0.05;63.87;101380.91;4435142;32;8900;-80
2020/12/25 03:43:40;;;;;;;;;32.33;30.00;;;;;-0.06;63.93;101376.53;4420760;32;9021;-81
2020/12/25 03:46:36;;;;;;;;;24.33;24.33;;;;;0.02;64.30;101370.69;4429584;32;9549;-80
2020/12/25 03:49:32;;;;;;;;;23.33;23.33;;;;;0.04;64.44;101360.38;4427129;32;8945;-81
2020/12/25 03:52:07;;;;;;;;;14.33;14.33;;;;;-0.05;65.14;101356.41;4437082;32;8908;-81
2020/12/25 03:55:03;;;;;;;;;21.67;20.33;;;;;-0.19;65.80;101360.50;4425270;32;8899;-81
2020/12/25 03:57:35;;;;;;;;;19.00;18.67;;;;;-0.07;65.68;101356.66;4426892;32;8950;-81
2020/12/25 04:00:31;;;;;;;;;37.00;33.00;;;;;-0.06;65.93;101350.16;4434329;32;8888;-81
2020/12/25 04:03:19;;;;;;;;;23.33;23.33;;;;;-0.12;66.32;101344.88;4434759;32;8883;-81
2020/12/25 04:06:14;;;;;;;;;18.00;17.33;;;;;-0.16;66.86;101351.84;4434849;32;9069;-80
2020/12/25 04:09:10;;;;;;;;;21.00;21.00;;;;;-0.18;67.46;101352.09;4433928;32;8895;-81
2020/12/25 04:11:38;;;;;;;;;27.33;27.33;;;;;-0.25;67.78;101343.25;4428604;32;8899;-79
2020/12/25 04:14:35;;;;;;;;;43.33;39.00;;;;;-0.19;67.45;101338.75;4422437;32;8891;-80
2020/12/25 04:17:30;;;;;;;;;26.00;26.00;;;;;-0.20;68.22;101331.66;4435004;32;8911;-81
2020/12/25 04:20:26;;;;;;;;;30.67;29.33;;;;;-0.12;68.40;101332.09;4435619;32;8904;-81
2020/12/25 04:23:21;;;;;;;;;29.67;29.33;;;;;-0.08;68.27;101333.25;4434881;32;8907;-80
2020/12/25 04:26:18;;;;;;;;;30.33;28.67;;;;;0.09;68.54;101333.28;4426339;32;8895;-81
2020/12/25 04:29:14;;;;;;;;;33.67;30.67;;;;;0.13;68.43;101329.00;4434255;32;8900;-80
2020/12/25 04:32:10;;;;;;;;;27.67;27.67;;;;;0.09;68.81;101325.13;4435199;32;8910;-81
2020/12/25 04:35:06;;;;;;;;;25.33;20.33;;;;;0.25;68.20;101321.59;4433332;32;8942;-81
2020/12/25 04:38:02;;;;;;;;;25.33;24.67;;;;;0.29;68.59;101319.19;4429408;32;8962;-81
2020/12/25 04:40:58;;;;;;;;;26.33;22.67;;;;;0.32;68.91;101318.72;4449340;32;8904;-81
2020/12/25 04:43:55;;;;;;;;;26.00;26.00;;;;;0.22;69.36;101318.53;4431577;32;8927;-79
2020/12/25 04:46:22;;;;;;;;;32.67;31.33;;;;;0.20;69.80;101316.06;4433599;32;8882;-81
2020/12/25 04:49:19;;;;;;;;;35.33;33.00;;;;;0.28;69.75;101315.63;4437252;32;8973;-81
2020/12/25 04:52:15;;;;;;;;;33.33;33.33;;;;;0.37;70.41;101309.78;4433315;32;8942;-80
2020/12/25 04:54:52;;;;;;;;;32.33;32.33;;;;;0.52;70.94;101307.31;4435454;32;8886;-81
2020/12/25 04:57:49;;;;;;;;;35.67;32.33;;;;;0.52;70.98;101299.13;4434128;32;8908;-81
2020/12/25 05:01:00;;;;;;;;;33.33;29.67;;;;;0.70;70.46;101295.34;4435059;32;8907;-81
2020/12/25 05:03:56;;;;;;;;;23.67;22.33;;;;;0.72;70.64;101298.63;4433819;32;8904;-81
2020/12/25 05:06:52;;;;;;;;;37.33;31.67;;;;;0.66;71.08;101286.00;4433275;32;9056;-82
2020/12/25 05:09:34;;;;;;;;;27.33;27.33;;;;;0.72;71.87;101285.84;4434176;32;8914;-82
2020/12/25 05:12:31;;;;;;;;;32.67;32.33;;;;;0.53;72.76;101277.09;4434821;32;8880;-81
2020/12/25 05:15:03;;;;;;;;;33.67;32.33;;;;;0.82;72.26;101268.81;4438339;32;8886;-82
2020/12/25 05:18:00;;;;;;;;;38.00;31.00;;;;;0.82;72.03;101268.81;4431863;32;8965;-81
2020/12/25 05:20:59;;;;;;;;;34.00;34.00;;;;;0.92;72.50;101268.97;4418458;32;9004;-83
2020/12/25 05:23:56;;;;;;;;;31.00;28.67;;;;;0.20;75.33;101264.37;4429192;32;8919;-81
2020/12/25 05:26:56;;;;;;;;;29.33;29.33;;;;;0.40;76.02;101265.78;4418105;32;8933;-81
2020/12/25 05:29:39;;;;;;;;;32.33;27.67;;;;;0.11;76.89;101262.31;4418407;32;8970;-82
2020/12/25 05:32:35;;;;;;;;;32.33;31.00;;;;;0.75;75.08;101254.56;4419256;32;8989;-81
2020/12/25 05:35:02;;;;;;;;;32.67;31.67;;;;;0.47;76.39;101250.91;4428472;32;8915;-81
2020/12/25 05:38:09;;;;;;;;;35.33;31.33;;;;;0.91;75.41;101239.22;4419646;32;8898;-83
2020/12/25 05:41:05;;;;;;;;;43.00;39.00;;;;;0.78;76.29;101240.44;4430059;32;9015;-84
2020/12/25 05:44:02;;;;;;;;;43.67;40.00;;;;;1.10;75.44;101230.50;4431547;32;8888;-83
2020/12/25 05:46:59;;;;;;;;;33.67;31.67;;;;;0.74;77.21;101221.06;4438086;32;8957;-82
2020/12/25 05:49:55;;;;;;;;;31.67;31.67;;;;;1.14;76.17;101213.63;4438530;32;9000;-83
2020/12/25 05:52:54;;;;;;;;;29.33;27.67;;;;;0.85;77.11;101202.16;4418022;32;8895;-81
2020/12/25 05:55:37;;;;;;;;;35.00;33.67;;;;;1.11;76.72;101199.44;4433286;32;8929;-81
2020/12/25 05:58:20;;;;;;;;;24.67;21.33;;;;;0.93;77.78;101198.97;4434219;32;8906;-81
2020/12/25 06:00:48;;;;;;;;;31.00;30.67;;;;;1.32;76.90;101213.31;4429156;32;8939;-80
2020/12/25 06:03:45;;;;;;;;;27.33;27.33;;;;;1.22;77.29;101207.72;4420499;32;8957;-81
2020/12/25 06:06:43;;;;;;;;;32.33;30.67;;;;;1.39;77.40;101208.47;4433232;32;8931;-82
2020/12/25 06:09:44;;;;;;;;;26.33;24.00;;;;;1.18;78.00;101207.44;4433451;32;8934;-81
2020/12/25 06:12:41;;;;;;;;;20.33;19.00;;;;;1.33;77.97;101218.50;4433706;32;8903;-81
2020/12/25 06:15:43;;;;;;;;;34.00;27.67;;;;;1.07;78.90;101206.50;4435748;32;8884;-83
2020/12/25 06:19:22;;;;;;;;;32.00;29.33;;;;;1.61;78.30;101203.78;4425095;32;8895;-84
2020/12/25 06:22:22;;;;;;;;;25.00;25.00;;;;;1.38;78.83;101204.94;4427903;32;8935;-82
2020/12/25 06:24:56;;;;;;;;;30.67;27.67;;;;;1.87;78.45;101213.00;4438245;32;8929;-79
2020/12/25 06:28:01;;;;;;;;;23.67;23.67;;;;;1.95;77.87;101198.06;4435837;32;8949;-79
2020/12/25 06:30:56;;;;;;;;;36.67;33.33;;;;;2.24;77.41;101182.19;4436143;32;8953;-80
2020/12/25 06:33:52;;;;;;;;;27.33;27.33;;;;;2.33;77.17;101182.50;4435690;32;8891;-80
2020/12/25 06:36:48;;;;;;;;;30.33;29.00;;;;;2.31;77.31;101177.31;4436041;32;9063;-80
2020/12/25 06:39:52;;;;;;;;;21.00;19.67;;;;;2.44;77.39;101171.34;4435930;32;8973;-80
2020/12/25 06:42:41;;;;;;;;;19.33;17.67;;;;;2.68;76.74;101160.81;4435758;32;9564;-80
2020/12/25 06:45:37;;;;;;;;;19.67;19.67;;;;;2.70;76.76;101158.66;4436018;32;8939;-79
2020/12/25 06:48:18;;;;;;;;;17.00;16.00;;;;;2.78;76.85;101165.53;4435963;32;8930;-80
2020/12/25 06:51:14;;;;;;;;;18.67;18.67;;;;;2.84;76.36;101163.59;4435975;32;12506;-80
2020/12/25 06:54:19;;;;;;;;;13.67;13.67;;;;;2.87;76.69;101157.62;4435447;32;8911;-80
2020/12/25 06:57:15;;;;;;;;;7.00;7.00;;;;;3.03;76.14;101148.38;4435476;32;13110;-79
2020/12/25 07:00:11;;;;;;;;;15.00;15.00;;;;;3.17;75.66;101151.44;4435901;32;12353;-79
2020/12/25 07:03:11;;;;;;;;;25.67;22.33;;;;;3.20;75.77;101157.16;4435180;32;8888;-79
2020/12/25 07:05:54;;;;;;;;;17.67;17.33;;;;;3.34;75.38;101158.28;4435476;32;8887;-80
2020/12/25 07:08:52;;;;;;;;;16.00;16.00;;;;;3.18;76.13;101153.06;4435137;32;13003;-78
2020/12/25 07:11:52;;;;;;;;;18.50;18.25;;;;;3.33;75.79;101153.09;4435755;32;12429;-78
2020/12/25 07:14:33;;;;;;;;;26.50;26.50;;;;;3.31;75.78;101158.03;4437033;32;12379;-79
2020/12/25 07:17:28;;;;;;;;;16.50;16.50;;;;;3.48;75.54;101152.28;4435031;32;12402;-79
2020/12/25 07:19:55;;;;;;;;;21.25;19.25;;;;;3.31;76.32;101156.09;4436522;32;12349;-79
2020/12/25 07:22:51;;;;;;;;;15.00;15.00;;;;;3.57;75.83;101158.84;4430755;32;12373;-78
2020/12/25 07:25:47;;;;;;;;;16.75;16.75;;;;;3.50;76.58;101155.56;4426770;32;12299;-78
2020/12/25 07:28:44;;;;;;;;;17.75;17.75;;;;;3.61;76.47;101152.56;4434899;32;12340;-77
2020/12/25 07:31:51;;;;;;;;;19.50;19.50;;;;;3.68;76.71;101140.53;4426317;32;13068;-76
2020/12/25 07:34:47;;;;;;;;;14.25;14.00;;;;;3.19;79.08;101136.38;4434302;32;12312;-78
2020/12/25 07:37:52;;;;;;;;;18.00;18.00;;;;;3.02;79.93;101131.16;4434782;32;12383;-79
2020/12/25 07:40:35;;;;;;;;;14.75;14.75;;;;;3.46;78.50;101140.81;4435199;32;12361;-78
2020/12/25 07:43:30;;;;;;;;;16.33;16.33;;;;;3.20;79.86;101138.03;4427894;32;12347;-76
2020/12/25 07:46:02;;;;;;;;;12.25;12.25;;;;;3.54;78.81;101143.00;4434634;32;12356;-77
2020/12/25 07:48:29;;;;;;;;;11.25;11.25;;;;;3.10;80.50;101137.19;4433310;32;13045;-78
2020/12/25 07:50:58;;;;;;;;;10.25;10.25;;;;;3.39;79.68;101149.28;4434211;32;12351;-76
2020/12/25 07:53:26;;;;;;;;;14.25;12.25;;;;;3.24;80.24;101132.84;4433101;32;12355;-77
2020/12/25 07:55:54;;;;;;;;;15.25;15.25;;;;;3.13;81.31;101131.19;4431503;32;12387;-77
2020/12/25 07:58:51;;;;;;;;;17.33;17.33;;;;;3.49;79.32;101132.06;4425450;32;12310;-78
2020/12/25 08:01:35;;;;;;;;;18.25;17.50;;;;;3.14;81.02;101117.25;4426475;32;12313;-78
2020/12/25 08:04:40;;;;;;;;;13.00;10.75;;;;;3.63;79.36;101117.56;4428904;32;12458;-78
2020/12/25 08:07:22;;;;;;;;;18.00;18.00;;;;;3.17;81.15;101104.97;4434474;32;12307;-77
2020/12/25 08:10:18;;;;;;;;;17.00;15.00;;;;;3.61;79.99;101097.87;4431520;32;12295;-77
2020/12/25 08:12:53;;;;;;;;;16.33;16.33;;;;;3.20;81.22;101098.94;4422274;32;12274;-77
2020/12/25 08:15:49;;;;;;;;;18.00;17.00;;;;;3.59;80.20;101094.56;4424770;32;12990;-79
2020/12/25 08:18:50;;;;;;;;;18.25;18.25;;;;;3.35;81.44;101085.28;4423154;32;12357;-78
2020/12/25 08:21:45;;;;;;;;;13.25;13.00;;;;;3.75;80.09;101087.16;4423986;32;12861;-78
2020/12/25 08:24:42;;;;;;;;;18.00;18.00;;;;;3.60;80.62;101076.25;4432702;32;12300;-79
2020/12/25 08:27:40;;;;;;;;;16.00;16.00;;;;;3.80;80.19;101078.97;4434037;32;12957;-77
2020/12/25 08:30:36;;;;;;;;;18.00;18.00;;;;;3.38;81.25;101071.09;4434019;32;12465;-78
2020/12/25 08:33:31;;;;;;;;;18.25;18.25;;;;;3.69;80.68;101066.41;4433830;32;12315;-79
2020/12/25 08:36:27;;;;;;;;;22.00;21.25;;;;;3.59;81.61;101056.28;4434185;32;12313;-78
2020/12/25 08:39:31;;;;;;;;;24.00;22.75;;;;;3.86;80.87;101052.41;4434287;32;12403;-77
2020/12/25 08:42:26;;;;;;;;;20.75;20.75;;;;;3.63;81.89;101045.62;4433945;32;12346;-78
2020/12/25 08:45:22;;;;;;;;;19.75;19.75;;;;;4.01;80.82;101038.69;4434684;32;12417;-78
2020/12/25 08:48:17;;;;;;;;;12.25;12.25;;;;;4.18;79.66;101038.38;4433727;32;13080;-78
2020/12/25 08:51:14;;;;;;;;;18.00;17.50;;;;;4.33;79.40;101034.75;4433817;32;12316;-78
2020/12/25 08:54:10;;;;;;;;;15.00;15.00;;;;;3.85;81.58;101037.09;4433761;32;12503;-77
2020/12/25 08:57:12;;;;;;;;;12.50;12.50;;;;;4.27;80.35;101031.19;4434385;32;12394;-76
2020/12/25 09:00:10;;;;;;;;;10.00;10.00;;;;;3.82;81.61;101032.16;4433522;32;12294;-78
2020/12/25 09:03:05;;;;;;;;;13.25;11.00;;;;;4.34;80.40;101022.69;4427892;32;12276;-77
2020/12/25 09:06:01;;;;;;;;;13.75;13.75;;;;;3.81;81.97;101019.59;4433553;32;12915;-76
2020/12/25 09:08:57;;;;;;;;;11.00;11.00;;;;;4.29;80.44;101017.22;4433844;32;12286;-77
2020/12/25 09:11:52;;;;;;;;;11.75;11.75;;;;;3.86;82.48;101008.66;4433512;32;12302;-77
2020/12/25 09:14:48;;;;;;;;;14.50;13.00;;;;;4.38;80.95;101008.16;4432874;32;12275;-77
2020/12/25 09:17:43;;;;;;;;;12.50;12.00;;;;;4.47;80.58;100997.44;4433662;32;12287;-77
2020/12/25 09:20:39;;;;;;;;;9.00;8.75;;;;;4.66;80.34;100990.19;4422657;32;12277;-78
2020/12/25 09:23:35;;;;;;;;;15.75;15.00;;;;;4.10;82.61;100979.53;4423038;32;12304;-78
2020/12/25 09:26:30;;;;;;;;;11.00;11.00;;;;;4.62;81.07;100969.13;4432904;32;12501;-78
2020/12/25 09:29:26;;;;;;;;;9.00;9.00;;;;;4.25;82.92;100964.16;4434257;32;12324;-78
2020/12/25 09:32:21;;;;;;;;;11.25;11.25;;;;;4.69;81.33;100962.22;4432679;32;12242;-78
2020/12/25 09:35:18;;;;;;;;;13.00;11.50;;;;;4.90;80.86;100959.31;4422870;32;12925;-78
2020/12/25 09:38:15;;;;;;;;;9.75;9.75;;;;;4.65;81.04;100958.41;4433783;32;12347;-79
2020/12/25 09:41:13;;;;;;;;;13.00;12.25;;;;;4.46;82.79;100955.53;4421393;32;12518;-75
2020/12/25 09:43:42;;;;;;;;;10.25;10.25;;;;;4.81;81.45;100947.34;4427331;32;12313;-75
2020/12/25 09:46:12;;;;;;;;;11.50;11.50;;;;;4.50;83.60;100944.00;4426358;32;13018;-75
2020/12/25 09:49:10;;;;;;;;;13.00;12.00;;;;;5.06;82.09;100949.88;4421365;32;12507;-76
2020/12/25 09:52:06;;;;;;;;;9.00;9.00;;;;;5.35;81.02;100957.28;4430098;32;13046;-77
2020/12/25 09:55:03;;;;;;;;;7.50;7.50;;;;;5.15;80.88;100939.94;4438748;32;12388;-77
2020/12/25 09:57:59;;;;;;;;;20.00;19.25;;;;;4.67;83.68;100947.97;4434792;32;12949;-78
2020/12/25 10:00:56;;;;;;;;;83.75;46.50;;;;;5.56;81.92;100939.50;4436297;32;12348;-76
2020/12/25 10:03:51;;;;;;;;;9.25;9.25;;;;;6.00;82.21;100947.53;4434927;32;12389;-76
2020/12/25 10:06:47;;;;;;;;;10.00;10.00;;;;;5.28;81.40;100946.66;4434772;32;12320;-77
2020/12/25 10:09:42;;;;;;;;;13.50;13.00;;;;;5.02;83.09;100940.59;4436116;32;12357;-77
2020/12/25 10:12:11;;;;;;;;;10.50;9.00;;;;;5.49;80.95;100937.09;4433245;32;12328;-77
2020/12/25 10:15:08;;;;;;;;;8.75;8.75;;;;;5.01;82.78;100945.25;4433227;32;12290;-76
2020/12/25 10:18:04;;;;;;;;;12.25;12.25;;;;;5.41;81.72;100945.97;4422560;32;12405;-76
2020/12/25 10:21:02;;;;;;;;;9.75;9.75;;;;;5.44;81.54;100941.81;4423515;32;12355;-76
2020/12/25 10:23:57;;;;;;;;;7.00;7.00;;;;;5.35;81.24;100951.78;4433099;32;12312;-75
2020/12/25 10:26:58;;;;;;;;;12.50;12.50;;;;;5.00;83.26;100942.81;4425703;32;12357;-75
2020/12/25 10:29:55;;;;;;;;;9.00;9.00;;;;;5.56;80.94;100936.75;4430933;32;12428;-76
2020/12/25 10:32:23;;;;;;;;;13.75;13.75;;;;;5.10;82.30;100936.41;4434698;32;12402;-76
2020/12/25 10:34:50;;;;;;;;;9.00;9.00;;;;;5.60;81.28;100929.59;4433456;32;12380;-77
2020/12/25 10:37:20;;;;;;;;;13.25;13.25;;;;;5.95;80.24;100913.81;4431113;32;12306;-76
2020/12/25 10:40:17;;;;;;;;;13.00;13.00;;;;;6.09;79.58;100920.22;4426349;32;12423;-76
2020/12/25 10:42:49;;;;;;;;;6.50;6.50;;;;;5.51;81.74;100926.66;4427681;32;12286;-76
2020/12/25 10:45:41;;;;;;;;;9.25;8.00;;;;;5.71;81.04;100917.38;4433616;32;12304;-75
2020/12/25 10:48:10;;;;;;;;;8.50;8.25;;;;;6.08;79.79;100913.09;4434019;32;12289;-75
2020/12/25 10:51:06;;;;;;;;;9.25;9.25;;;;;6.21;79.06;100897.81;4430351;32;12307;-76
2020/12/25 10:54:02;;;;;;;;;8.75;8.75;;;;;5.12;83.29;100901.28;4432714;32;12260;-75
2020/12/25 10:56:57;;;;;;;;;9.00;9.00;;;;;5.97;81.04;100895.13;4429999;32;12319;-76
2020/12/25 10:59:25;;;;;;;;;8.25;8.25;;;;;5.37;82.92;100902.94;4435587;32;12281;-76
2020/12/25 11:02:20;;;;;;;;;8.00;8.00;;;;;5.72;81.84;100912.72;4419575;32;12415;-77
2020/12/25 11:05:16;;;;;;;;;8.50;8.50;;;;;6.07;80.74;100901.31;4420985;32;12375;-76
2020/12/25 11:08:12;;;;;;;;;4.50;4.50;;;;;6.24;79.97;100897.22;4428536;32;12296;-77
2020/12/25 11:11:07;;;;;;;;;8.75;8.75;;;;;5.43;82.68;100897.13;4434956;32;12264;-76
2020/12/25 11:14:05;;;;;;;;;10.50;9.00;;;;;6.10;80.83;100888.91;4428409;32;12340;-76
2020/12/25 11:17:01;;;;;;;;;9.50;9.50;;;;;6.19;80.06;100887.13;4421411;32;12432;-76
2020/12/25 11:19:57;;;;;;;;;5.00;4.75;;;;;5.97;80.15;100893.19;4430698;32;12464;-76
2020/12/25 11:22:28;;;;;;;;;9.00;9.00;;;;;5.33;83.87;100890.94;4433434;32;12326;-75
2020/12/25 11:25:25;;;;;;;;;9.00;9.00;;;;;6.16;81.38;100884.16;4432854;32;12304;-76
2020/12/25 11:28:20;;;;;;;;;10.00;10.00;;;;;6.33;80.86;100896.25;4430042;32;12257;-74
2020/12/25 11:31:16;;;;;;;;;6.25;6.25;;;;;6.04;80.91;100893.66;4424245;32;12357;-75
2020/12/25 11:34:00;;;;;;;;;9.00;9.00;;;;;5.71;83.69;100894.63;4421077;32;12357;-76
2020/12/25 11:36:56;;;;;;;;;13.75;9.75;;;;;6.08;82.24;100877.41;4427120;32;12491;-75
2020/12/25 11:39:51;;;;;;;;;10.25;10.25;;;;;5.71;84.14;100886.38;4435545;32;12383;-75
2020/12/25 11:42:47;;;;;;;;;9.50;9.00;;;;;6.41;81.89;100876.34;4434853;32;13036;-74
2020/12/25 11:45:43;;;;;;;;;9.00;9.00;;;;;6.50;80.65;100882.00;4435838;32;12336;-75
2020/12/25 11:48:38;;;;;;;;;7.25;7.25;;;;;6.03;82.48;100871.97;4434264;32;12330;-76
2020/12/25 11:51:07;;;;;;;;;10.50;10.50;;;;;6.20;83.33;100885.19;4433766;32;12310;-75
2020/12/25 11:53:37;;;;;;;;;9.50;9.50;;;;;6.63;81.36;100880.41;4430819;32;12275;-74
2020/12/25 11:56:34;;;;;;;;;10.00;10.00;;;;;6.76;80.74;100884.34;4429647;32;12253;-76
2020/12/25 11:59:15;;;;;;;;;8.50;8.50;;;;;6.78;80.51;100882.91;4431635;32;12331;-75
2020/12/25 12:01:44;;;;;;;;;13.50;12.25;;;;;6.12;82.65;100878.44;4425985;32;12357;-75
2020/12/25 12:04:40;;;;;;;;;9.00;9.00;;;;;6.38;82.84;100879.72;4419729;32;13006;-75
2020/12/25 12:07:36;;;;;;;;;15.25;15.25;;;;;6.74;81.01;100872.81;4429284;32;12987;-76
2020/12/25 12:10:32;;;;;;;;;10.75;10.75;;;;;6.95;80.23;100871.34;4432810;32;12348;-76
2020/12/25 12:13:27;;;;;;;;;13.50;13.50;;;;;6.51;81.19;100855.31;4433547;32;12327;-76
2020/12/25 12:16:03;;;;;;;;;9.50;9.50;;;;;5.96;84.26;100868.78;4431426;32;12431;-76
2020/12/25 12:18:30;;;;;;;;;9.75;9.75;;;;;6.66;81.88;100858.62;4434040;32;12274;-78
2020/12/25 12:21:12;;;;;;;;;14.50;14.50;;;;;6.85;81.22;100858.59;4427195;32;12285;-77
2020/12/25 12:23:41;;;;;;;;;9.75;9.75;;;;;7.02;80.71;100854.47;4436878;32;12306;-77
2020/12/25 12:26:10;;;;;;;;;14.00;13.75;;;;;6.60;81.51;100853.56;4434386;32;12301;-77
2020/12/25 12:29:07;;;;;;;;;13.00;12.50;;;;;6.34;83.42;100855.88;4433187;32;12271;-76
2020/12/25 12:31:37;;;;;;;;;8.75;8.75;;;;;7.02;81.09;100854.47;4435283;32;13002;-76
2020/12/25 12:34:05;;;;;;;;;13.00;13.00;;;;;7.11;80.42;100860.87;4433838;32;12329;-77
2020/12/25 12:37:02;;;;;;;;;16.25;16.25;;;;;7.16;80.05;100853.38;4423675;32;12301;-76
2020/12/25 12:39:58;;;;;;;;;17.50;17.50;;;;;6.64;82.09;100868.31;4418279;32;12397;-78
2020/12/25 12:42:53;;;;;;;;;17.50;17.50;;;;;7.00;81.09;100857.53;4420306;32;12404;-77
2020/12/25 12:45:49;;;;;;;;;18.75;14.75;;;;;7.17;80.38;100856.94;4434357;32;12330;-75
2020/12/25 12:48:44;;;;;;;;;13.25;13.25;;;;;7.20;80.52;100861.81;4433018;32;12406;-74
2020/12/25 12:51:40;;;;;;;;;11.25;11.25;;;;;6.66;82.49;100861.38;4432457;32;12309;-75
2020/12/25 12:54:36;;;;;;;;;13.75;13.75;;;;;6.74;83.01;100859.06;4433794;32;12362;-75
2020/12/25 12:57:31;;;;;;;;;15.00;15.00;;;;;7.30;80.75;100858.88;4426204;32;12367;-75
2020/12/25 12:59:59;;;;;;;;;13.00;13.00;;;;;7.39;80.32;100861.75;4432819;32;12292;-75
2020/12/25 13:02:26;;;;;;;;;15.00;15.00;;;;;7.23;80.16;100878.53;4434073;32;12290;-74
2020/12/25 13:05:24;;;;;;;;;14.50;14.50;;;;;6.57;83.02;100878.88;4429697;32;12281;-75
2020/12/25 13:08:20;;;;;;;;;14.75;14.75;;;;;7.16;81.16;100874.56;4428985;32;12316;-77
2020/12/25 13:10:51;;;;;;;;;14.50;14.50;;;;;7.16;80.90;100877.31;4434518;32;12283;-78
2020/12/25 13:13:22;;;;;;;;;14.00;14.00;;;;;7.37;80.29;100870.31;4434514;32;12383;-76